createdAt,value
2022-09-28T00:00:16.690Z,98770.41
2022-09-28T00:05:19.288Z,98763.00
2022-09-28T00:10:24.754Z,98759.97
2022-09-28T00:15:27.077Z,98753.25
2022-09-28T00:20:29.516Z,98753.41
2022-09-28T00:25:32.301Z,98739.63
2022-09-28T00:30:34.607Z,98740.41
2022-09-28T00:35:36.971Z,98741.34
2022-09-28T00:40:39.390Z,98745.69
2022-09-28T00:45:42.417Z,98728.34
2022-09-28T00:50:46.049Z,98732.91
2022-09-28T00:55:54.214Z,98745.19
2022-09-28T01:00:58.325Z,98741.03
2022-09-28T01:06:02.917Z,98735.59
2022-09-28T01:11:05.747Z,98729.97
2022-09-28T01:16:15.515Z,98734.31
2022-09-28T01:21:23.547Z,98733.03
2022-09-28T01:26:25.831Z,98725.03
2022-09-28T01:31:31.149Z,98732.22
2022-09-28T01:36:45.758Z,98716.03
2022-09-28T01:41:51.633Z,98717.00
2022-09-28T01:46:54.514Z,98710.72
2022-09-28T01:52:13.050Z,98714.44
2022-09-28T01:57:23.589Z,98707.53
2022-09-28T02:02:29.701Z,98701.13
2022-09-28T02:07:55.883Z,98705.78
2022-09-28T02:13:11.294Z,98710.88
2022-09-28T02:18:13.959Z,98712.31
2022-09-28T02:23:17.078Z,98709.97
2022-09-28T02:28:19.651Z,98709.47
2022-09-28T02:33:32.197Z,98700.94
2022-09-28T02:38:34.808Z,98700.50
2022-09-28T02:44:14.338Z,98703.53
2022-09-28T02:49:29.324Z,98695.50
2022-09-28T02:55:22.431Z,98694.88
2022-09-28T03:00:25.195Z,98688.63
2022-09-28T03:05:47.554Z,98694.38
2022-09-28T03:10:57.192Z,98695.13
2022-09-28T03:16:14.234Z,98690.03
2022-09-28T03:21:18.599Z,98695.34
2022-09-28T03:26:21.057Z,98684.84
2022-09-28T03:31:23.926Z,98687.63
2022-09-28T03:36:26.827Z,98684.59
2022-09-28T03:41:29.276Z,98689.06
2022-09-28T03:46:31.634Z,98684.34
2022-09-28T03:51:39.612Z,98681.03
2022-09-28T03:56:42.172Z,98686.91
2022-09-28T04:01:44.614Z,98685.56
2022-09-28T04:06:47.109Z,98683.69
2022-09-28T04:12:03.462Z,98686.03
2022-09-28T04:17:07.961Z,98688.69
2022-09-28T04:22:10.438Z,98690.72
2022-09-28T04:27:32.057Z,98681.97
2022-09-28T04:32:36.378Z,98690.28
2022-09-28T04:37:40.405Z,98690.41
2022-09-28T04:42:42.903Z,98697.03
2022-09-28T04:47:45.353Z,98694.13
2022-09-28T04:53:10.686Z,98695.00
2022-09-28T04:58:13.058Z,98693.22
2022-09-28T05:03:15.623Z,98687.41
2022-09-28T05:08:50.541Z,98683.47
2022-09-28T05:13:53.026Z,98682.19
2022-09-28T05:18:57.028Z,98691.44
2022-09-28T05:23:59.730Z,98689.41
2022-09-28T05:29:02.427Z,98698.16
2022-09-28T05:34:31.246Z,98692.94
2022-09-28T05:39:33.699Z,98702.53
2022-09-28T05:44:38.523Z,98695.28
2022-09-28T05:49:41.217Z,98696.69
2022-09-28T05:54:43.644Z,98703.75
2022-09-28T05:59:46.500Z,98699.00
2022-09-28T06:04:51.384Z,98691.22
2022-09-28T06:09:54.050Z,98703.28
2022-09-28T06:15:11.219Z,98693.19
2022-09-28T06:20:13.817Z,98687.41
2022-09-28T06:25:39.960Z,98692.72
2022-09-28T06:30:43.364Z,98682.50
2022-09-28T06:35:48.346Z,98684.09
2022-09-28T06:40:50.839Z,98687.47
2022-09-28T06:45:54.260Z,98694.00
2022-09-28T06:51:07.178Z,98691.28
2022-09-28T06:56:18.261Z,98691.50
2022-09-28T07:01:20.965Z,98702.25
2022-09-28T07:06:59.861Z,98691.97
2022-09-28T07:12:21.907Z,98695.00
2022-09-28T07:17:50.676Z,98703.81
2022-09-28T07:23:15.054Z,98698.41
2022-09-28T07:28:43.469Z,98716.84
2022-09-28T07:34:14.828Z,98703.88
2022-09-28T07:39:57.493Z,98708.31
2022-09-28T07:45:00.172Z,98716.03
2022-09-28T07:50:02.661Z,98716.63
2022-09-28T07:55:21.525Z,98717.06
2022-09-28T08:00:47.657Z,98716.56
2022-09-28T08:05:50.209Z,98704.66
2022-09-28T08:10:53.242Z,98705.00
2022-09-28T08:16:15.973Z,98711.47
2022-09-28T08:21:45.870Z,98707.63
2022-09-28T08:26:49.580Z,98717.63
2022-09-28T08:31:53.320Z,98720.06
2022-09-28T08:37:11.198Z,98715.53
2022-09-28T08:42:32.055Z,98717.94
2022-09-28T08:48:49.003Z,98708.75
2022-09-28T08:54:36.231Z,98720.44
2022-09-28T08:59:51.440Z,98718.56
2022-09-28T09:05:08.276Z,98720.47
2022-09-28T09:10:46.027Z,98720.38
2022-09-28T09:16:20.410Z,98725.69
2022-09-28T09:22:02.357Z,98718.75
2022-09-28T09:27:06.988Z,98717.31
2022-09-28T09:32:33.923Z,98729.41
2022-09-28T09:38:11.552Z,98729.00
2022-09-28T09:43:31.543Z,98725.22
2022-09-28T09:49:01.360Z,98725.53
2022-09-28T09:54:10.794Z,98731.53
2022-09-28T09:59:18.159Z,98747.97
2022-09-28T10:04:52.827Z,98752.25
2022-09-28T10:10:02.503Z,98763.34
2022-09-28T10:15:24.555Z,98763.31
2022-09-28T10:20:54.727Z,98768.53
2022-09-28T10:26:25.039Z,98771.16
2022-09-28T10:31:42.593Z,98783.88
2022-09-28T10:37:01.565Z,98779.47
2022-09-28T10:42:12.887Z,98780.66
2022-09-28T10:47:18.023Z,98768.88
2022-09-28T10:52:36.788Z,98772.22
2022-09-28T10:57:40.901Z,98773.50
2022-09-28T11:02:45.043Z,98762.88
2022-09-28T11:07:57.973Z,98763.88
2022-09-28T11:13:09.629Z,98760.88
2022-09-28T11:18:31.617Z,98754.06
2022-09-28T11:23:41.144Z,98746.88
2022-09-28T11:28:56.146Z,98751.88
2022-09-28T11:34:17.407Z,98747.09
2022-09-28T11:39:59.142Z,98752.84
2022-09-28T11:45:31.481Z,98746.44
2022-09-28T11:50:48.297Z,98745.28
2022-09-28T11:55:57.752Z,98746.13
2022-09-28T12:01:19.123Z,98752.69
2022-09-28T12:07:02.407Z,98749.53
2022-09-28T12:12:25.599Z,98755.03
2022-09-28T12:17:39.668Z,98746.59
2022-09-28T12:22:46.748Z,98744.44
2022-09-28T12:27:54.151Z,98741.56
2022-09-28T12:33:05.005Z,98753.03
2022-09-28T12:38:45.998Z,98761.06
2022-09-28T12:44:37.882Z,98751.47
2022-09-28T12:50:37.507Z,98760.88
2022-09-28T12:55:45.828Z,98754.59
2022-09-28T13:01:01.954Z,98754.81
2022-09-28T13:06:48.538Z,98762.81
2022-09-28T13:12:16.111Z,98758.81
2022-09-28T13:17:32.803Z,98763.47
2022-09-28T13:22:35.097Z,98750.91
2022-09-28T13:27:45.665Z,98757.72
2022-09-28T13:32:50.008Z,98753.00
2022-09-28T13:38:17.546Z,98742.38
2022-09-28T13:43:29.550Z,98741.72
2022-09-28T13:49:02.430Z,98748.41
2022-09-28T13:54:26.222Z,98744.91
2022-09-28T13:59:30.426Z,98747.41
2022-09-28T14:05:00.443Z,98737.00
2022-09-28T14:10:21.029Z,98745.25
2022-09-28T14:15:29.459Z,98744.41
2022-09-28T14:20:32.351Z,98753.06
2022-09-28T14:25:47.619Z,98751.91
2022-09-28T14:30:53.461Z,98753.50
2022-09-28T14:36:02.148Z,98759.94
2022-09-28T14:41:09.562Z,98747.19
2022-09-28T14:46:12.099Z,98753.44
2022-09-28T14:51:26.616Z,98745.44
2022-09-28T14:56:32.764Z,98751.25
2022-09-28T15:01:36.276Z,98753.78
2022-09-28T15:06:49.009Z,98758.47
2022-09-28T15:11:55.571Z,98762.31
2022-09-28T15:17:04.324Z,98761.13
2022-09-28T15:22:17.898Z,98756.44
2022-09-28T15:27:20.560Z,98762.78
2022-09-28T15:32:31.819Z,98763.81
2022-09-28T15:37:40.419Z,98767.81
2022-09-28T15:42:45.342Z,98777.91
2022-09-28T15:47:47.893Z,98772.25
2022-09-28T15:53:06.876Z,98779.53
2022-09-28T15:58:24.412Z,98763.56
2022-09-28T16:03:31.270Z,98765.69
2022-09-28T16:08:43.669Z,98771.50
2022-09-28T16:13:48.699Z,98780.94
2022-09-28T16:18:51.987Z,98770.53
2022-09-28T16:23:58.512Z,98782.72
2022-09-28T16:29:02.188Z,98781.78
2022-09-28T16:34:11.372Z,98776.31
2022-09-28T16:39:16.413Z,98783.22
2022-09-28T16:44:36.918Z,98783.38
2022-09-28T16:49:40.097Z,98781.78
2022-09-28T16:55:01.366Z,98772.16
2022-09-28T17:00:04.268Z,98772.78
2022-09-28T17:05:07.242Z,98766.56
2022-09-28T17:10:50.043Z,98765.38
2022-09-28T17:16:10.536Z,98758.97
2022-09-28T17:21:18.962Z,98766.69
2022-09-28T17:26:26.900Z,98773.28
2022-09-28T17:31:30.641Z,98766.69
2022-09-28T17:36:32.961Z,98761.25
2022-09-28T17:41:37.294Z,98763.66
2022-09-28T17:46:48.654Z,98765.09
2022-09-28T17:51:52.961Z,98772.44
2022-09-28T17:56:55.255Z,98759.16
2022-09-28T18:02:01.539Z,98764.91
2022-09-28T18:07:04.648Z,98763.00
2022-09-28T18:12:07.201Z,98762.81
2022-09-28T18:17:09.797Z,98741.31
2022-09-28T18:22:12.092Z,98768.63
2022-09-28T18:27:14.554Z,98769.09
2022-09-28T18:32:16.913Z,98775.34
2022-09-28T18:37:19.424Z,98784.19
2022-09-28T18:42:21.839Z,98785.78
2022-09-28T18:47:24.653Z,98794.94
2022-09-28T18:52:29.051Z,98799.06
2022-09-28T18:57:33.667Z,98807.16
2022-09-28T19:02:36.795Z,98819.53
2022-09-28T19:07:39.126Z,98853.13
2022-09-28T19:12:41.591Z,98863.25
2022-09-28T19:17:46.447Z,98867.16
2022-09-28T19:22:51.568Z,98867.28
2022-09-28T19:27:54.001Z,98872.13
2022-09-28T19:32:56.380Z,98879.47
2022-09-28T19:37:58.762Z,98881.47
2022-09-28T19:43:01.893Z,98876.47
2022-09-28T19:48:04.275Z,98861.53
2022-09-28T19:53:07.529Z,98862.63
2022-09-28T19:58:10.148Z,98848.19
2022-09-28T20:03:12.468Z,98838.66
2022-09-28T20:08:15.530Z,98837.47
2022-09-28T20:13:18.032Z,98836.53
2022-09-28T20:18:20.830Z,98838.81
2022-09-28T20:23:23.211Z,98847.22
2022-09-28T20:28:26.953Z,98847.44
2022-09-28T20:33:31.074Z,98851.03
2022-09-28T20:38:33.732Z,98863.03
2022-09-28T20:43:36.049Z,98856.47
2022-09-28T20:48:38.434Z,98858.91
2022-09-28T20:53:42.041Z,98856.06
2022-09-28T20:58:44.734Z,98857.31
2022-09-28T21:03:48.244Z,98851.75
2022-09-28T21:08:50.933Z,98839.97
2022-09-28T21:13:54.929Z,98850.56
2022-09-28T21:18:57.829Z,98851.81
2022-09-28T21:24:00.218Z,98849.91
2022-09-28T21:29:02.529Z,98853.66
2022-09-28T21:34:05.233Z,98843.63
2022-09-28T21:39:10.370Z,98849.63
2022-09-28T21:44:13.041Z,98847.22
2022-09-28T21:49:15.419Z,98845.22
2022-09-28T21:54:17.796Z,98850.03
2022-09-28T21:59:20.225Z,98853.66
2022-09-28T22:04:22.606Z,98853.47
2022-09-28T22:09:25.029Z,98851.44
2022-09-28T22:14:27.509Z,98865.63
2022-09-28T22:19:29.863Z,98858.88
2022-09-28T22:24:32.251Z,98858.06
2022-09-28T22:29:35.032Z,98865.84
2022-09-28T22:34:37.514Z,98862.19
2022-09-28T22:39:41.171Z,98859.81
2022-09-28T22:44:43.681Z,98866.34
2022-09-28T22:49:46.042Z,98874.00
2022-09-28T22:54:51.223Z,98880.00
2022-09-28T22:59:53.588Z,98883.81
2022-09-28T23:04:56.007Z,98887.97
2022-09-28T23:09:59.890Z,98880.50
2022-09-28T23:15:02.786Z,98893.00
2022-09-28T23:20:05.585Z,98887.16
2022-09-28T23:25:08.342Z,98895.13
2022-09-28T23:30:10.888Z,98896.09
2022-09-28T23:35:14.512Z,98886.03
2022-09-28T23:40:17.027Z,98888.13
2022-09-28T23:45:19.442Z,98897.22
2022-09-28T23:50:21.894Z,98895.88
2022-09-28T23:55:24.298Z,98900.91
